sensor_id;sensor_type;location;lat;lon;timestamp;temperature;humidity
58951;DHT22;44730;53.158;6.398;2022-09-24T00:01:27;13.30;99.90
58951;DHT22;44730;53.158;6.398;2022-09-24T00:03:55;13.30;99.90
58951;DHT22;44730;53.158;6.398;2022-09-24T00:06:22;13.30;99.90
58951;DHT22;44730;53.158;6.398;2022-09-24T00:08:50;13.30;99.90
58951;DHT22;44730;53.158;6.398;2022-09-24T00:11:18;13.30;99.90
58951;DHT22;44730;53.158;6.398;2022-09-24T00:13:46;13.30;99.90
58951;DHT22;44730;53.158;6.398;2022-09-24T00:16:14;13.30;99.90
58951;DHT22;44730;53.158;6.398;2022-09-24T00:18:42;13.30;99.90
58951;DHT22;44730;53.158;6.398;2022-09-24T00:21:22;13.30;99.90
58951;DHT22;44730;53.158;6.398;2022-09-24T00:23:53;13.30;99.90
58951;DHT22;44730;53.158;6.398;2022-09-24T00:26:20;13.20;99.90
58951;DHT22;44730;53.158;6.398;2022-09-24T00:29:05;13.30;99.90
58951;DHT22;44730;53.158;6.398;2022-09-24T00:31:31;13.20;99.90
58951;DHT22;44730;53.158;6.398;2022-09-24T00:33:57;13.20;99.90
58951;DHT22;44730;53.158;6.398;2022-09-24T00:36:23;13.20;99.90
58951;DHT22;44730;53.158;6.398;2022-09-24T00:38:51;13.20;99.90
58951;DHT22;44730;53.158;6.398;2022-09-24T00:41:19;13.30;99.90
58951;DHT22;44730;53.158;6.398;2022-09-24T00:43:46;13.30;99.90
58951;DHT22;44730;53.158;6.398;2022-09-24T00:49:16;13.30;99.90
58951;DHT22;44730;53.158;6.398;2022-09-24T00:51:44;13.30;99.90
58951;DHT22;44730;53.158;6.398;2022-09-24T00:54:22;13.30;99.90
58951;DHT22;44730;53.158;6.398;2022-09-24T00:56:49;13.30;99.90
58951;DHT22;44730;53.158;6.398;2022-09-24T00:59:18;13.30;99.90
58951;DHT22;44730;53.158;6.398;2022-09-24T01:01:46;13.40;99.90
58951;DHT22;44730;53.158;6.398;2022-09-24T01:04:14;13.30;99.90
58951;DHT22;44730;53.158;6.398;2022-09-24T01:06:40;13.40;99.90
58951;DHT22;44730;53.158;6.398;2022-09-24T01:09:07;13.40;99.90
58951;DHT22;44730;53.158;6.398;2022-09-24T01:11:47;13.40;99.90
58951;DHT22;44730;53.158;6.398;2022-09-24T01:22:25;13.40;99.90
58951;DHT22;44730;53.158;6.398;2022-09-24T01:30:21;13.40;99.90
58951;DHT22;44730;53.158;6.398;2022-09-24T01:32:55;13.40;99.90
58951;DHT22;44730;53.158;6.398;2022-09-24T01:35:32;13.40;99.90
58951;DHT22;44730;53.158;6.398;2022-09-24T01:38:22;13.40;99.90
58951;DHT22;44730;53.158;6.398;2022-09-24T01:40:50;13.50;99.90
58951;DHT22;44730;53.158;6.398;2022-09-24T01:43:17;13.50;99.90
58951;DHT22;44730;53.158;6.398;2022-09-24T01:45:44;13.70;99.90
58951;DHT22;44730;53.158;6.398;2022-09-24T01:48:10;13.50;99.90
58951;DHT22;44730;53.158;6.398;2022-09-24T01:50:48;13.50;99.90
58951;DHT22;44730;53.158;6.398;2022-09-24T01:53:18;13.50;99.90
58951;DHT22;44730;53.158;6.398;2022-09-24T01:55:48;13.50;99.90
58951;DHT22;44730;53.158;6.398;2022-09-24T01:58:20;13.50;99.90
58951;DHT22;44730;53.158;6.398;2022-09-24T02:00:51;13.50;99.90
58951;DHT22;44730;53.158;6.398;2022-09-24T02:03:22;13.50;99.90
58951;DHT22;44730;53.158;6.398;2022-09-24T02:05:54;13.50;99.90
58951;DHT22;44730;53.158;6.398;2022-09-24T02:08:27;13.50;99.90
58951;DHT22;44730;53.158;6.398;2022-09-24T02:11:09;13.50;99.90
58951;DHT22;44730;53.158;6.398;2022-09-24T02:14:01;13.50;99.90
58951;DHT22;44730;53.158;6.398;2022-09-24T02:16:33;13.50;99.90
58951;DHT22;44730;53.158;6.398;2022-09-24T02:19:04;13.50;99.90
58951;DHT22;44730;53.158;6.398;2022-09-24T02:21:32;13.50;99.90
58951;DHT22;44730;53.158;6.398;2022-09-24T02:24:04;13.40;99.90
58951;DHT22;44730;53.158;6.398;2022-09-24T02:26:32;13.40;99.90
58951;DHT22;44730;53.158;6.398;2022-09-24T02:28:58;13.40;99.90
58951;DHT22;44730;53.158;6.398;2022-09-24T02:31:31;13.40;99.90
58951;DHT22;44730;53.158;6.398;2022-09-24T02:33:58;13.40;99.90
58951;DHT22;44730;53.158;6.398;2022-09-24T02:36:44;13.40;99.90
58951;DHT22;44730;53.158;6.398;2022-09-24T02:39:09;13.30;99.90
58951;DHT22;44730;53.158;6.398;2022-09-24T02:41:35;13.30;99.90
58951;DHT22;44730;53.158;6.398;2022-09-24T02:44:01;13.30;99.90
58951;DHT22;44730;53.158;6.398;2022-09-24T02:46:27;13.30;99.90
58951;DHT22;44730;53.158;6.398;2022-09-24T02:48:53;13.30;99.90
58951;DHT22;44730;53.158;6.398;2022-09-24T02:51:20;13.30;99.90
58951;DHT22;44730;53.158;6.398;2022-09-24T02:53:46;13.30;99.90
58951;DHT22;44730;53.158;6.398;2022-09-24T02:56:12;13.30;99.90
58951;DHT22;44730;53.158;6.398;2022-09-24T02:58:37;13.30;99.90
58951;DHT22;44730;53.158;6.398;2022-09-24T03:01:04;13.30;99.90
58951;DHT22;44730;53.158;6.398;2022-09-24T03:03:30;13.30;99.90
58951;DHT22;44730;53.158;6.398;2022-09-24T03:05:55;13.30;99.90
58951;DHT22;44730;53.158;6.398;2022-09-24T03:08:22;13.20;99.90
58951;DHT22;44730;53.158;6.398;2022-09-24T03:10:49;13.30;99.90
58951;DHT22;44730;53.158;6.398;2022-09-24T03:13:16;13.30;99.90
58951;DHT22;44730;53.158;6.398;2022-09-24T03:15:45;13.20;99.90
58951;DHT22;44730;53.158;6.398;2022-09-24T03:18:11;13.20;99.90
58951;DHT22;44730;53.158;6.398;2022-09-24T03:20:37;13.20;99.90
58951;DHT22;44730;53.158;6.398;2022-09-24T03:23:03;13.20;99.90
58951;DHT22;44730;53.158;6.398;2022-09-24T03:25:29;13.20;99.90
58951;DHT22;44730;53.158;6.398;2022-09-24T03:27:54;13.20;99.90
58951;DHT22;44730;53.158;6.398;2022-09-24T03:30:20;13.20;99.90
58951;DHT22;44730;53.158;6.398;2022-09-24T03:33:04;13.30;99.90
58951;DHT22;44730;53.158;6.398;2022-09-24T03:35:30;13.30;99.90
58951;DHT22;44730;53.158;6.398;2022-09-24T03:37:56;13.20;99.90
58951;DHT22;44730;53.158;6.398;2022-09-24T03:40:21;13.20;99.90
58951;DHT22;44730;53.158;6.398;2022-09-24T03:42:47;13.30;99.90
58951;DHT22;44730;53.158;6.398;2022-09-24T03:45:12;13.30;99.90
58951;DHT22;44730;53.158;6.398;2022-09-24T03:47:38;13.30;99.90
58951;DHT22;44730;53.158;6.398;2022-09-24T03:50:06;13.30;99.90
58951;DHT22;44730;53.158;6.398;2022-09-24T03:52:37;13.30;99.90
58951;DHT22;44730;53.158;6.398;2022-09-24T03:55:03;13.30;99.90
58951;DHT22;44730;53.158;6.398;2022-09-24T03:57:28;13.40;99.90
58951;DHT22;44730;53.158;6.398;2022-09-24T03:59:54;13.40;99.90
58951;DHT22;44730;53.158;6.398;2022-09-24T04:02:20;13.30;99.90
58951;DHT22;44730;53.158;6.398;2022-09-24T04:04:46;13.40;99.90
58951;DHT22;44730;53.158;6.398;2022-09-24T04:07:11;13.30;99.90
58951;DHT22;44730;53.158;6.398;2022-09-24T04:09:37;13.40;99.90
58951;DHT22;44730;53.158;6.398;2022-09-24T04:12:03;13.40;99.90
58951;DHT22;44730;53.158;6.398;2022-09-24T04:14:29;13.40;99.90
58951;DHT22;44730;53.158;6.398;2022-09-24T04:16:55;13.30;99.90
58951;DHT22;44730;53.158;6.398;2022-09-24T04:19:21;13.30;99.90
58951;DHT22;44730;53.158;6.398;2022-09-24T04:21:47;13.40;99.90
58951;DHT22;44730;53.158;6.398;2022-09-24T04:24:13;13.30;99.90
58951;DHT22;44730;53.158;6.398;2022-09-24T04:26:38;13.40;99.90
58951;DHT22;44730;53.158;6.398;2022-09-24T04:29:04;13.40;99.90
58951;DHT22;44730;53.158;6.398;2022-09-24T04:31:31;13.30;99.90
58951;DHT22;44730;53.158;6.398;2022-09-24T04:33:59;13.30;99.90
58951;DHT22;44730;53.158;6.398;2022-09-24T04:36:25;13.30;99.90
58951;DHT22;44730;53.158;6.398;2022-09-24T04:38:51;13.40;99.90
58951;DHT22;44730;53.158;6.398;2022-09-24T04:41:16;13.30;99.90
58951;DHT22;44730;53.158;6.398;2022-09-24T04:43:42;13.40;99.90
58951;DHT22;44730;53.158;6.398;2022-09-24T04:46:11;13.40;99.90
58951;DHT22;44730;53.158;6.398;2022-09-24T04:48:37;13.40;99.90
58951;DHT22;44730;53.158;6.398;2022-09-24T04:51:07;13.30;99.90
58951;DHT22;44730;53.158;6.398;2022-09-24T04:53:34;13.30;99.90
58951;DHT22;44730;53.158;6.398;2022-09-24T04:56:02;13.30;99.90
58951;DHT22;44730;53.158;6.398;2022-09-24T04:58:28;13.30;99.90
58951;DHT22;44730;53.158;6.398;2022-09-24T05:00:54;13.30;99.90
58951;DHT22;44730;53.158;6.398;2022-09-24T05:03:19;13.30;99.90
58951;DHT22;44730;53.158;6.398;2022-09-24T05:05:46;13.20;99.90
58951;DHT22;44730;53.158;6.398;2022-09-24T05:08:12;13.20;99.90
58951;DHT22;44730;53.158;6.398;2022-09-24T05:10:38;13.20;99.90
58951;DHT22;44730;53.158;6.398;2022-09-24T05:13:04;13.20;99.90
58951;DHT22;44730;53.158;6.398;2022-09-24T05:15:29;13.20;99.90
58951;DHT22;44730;53.158;6.398;2022-09-24T05:17:56;13.20;99.90
58951;DHT22;44730;53.158;6.398;2022-09-24T05:20:22;13.10;99.90
58951;DHT22;44730;53.158;6.398;2022-09-24T05:22:48;13.10;99.90
58951;DHT22;44730;53.158;6.398;2022-09-24T05:25:15;13.10;99.90
58951;DHT22;44730;53.158;6.398;2022-09-24T05:27:49;13.10;99.90
58951;DHT22;44730;53.158;6.398;2022-09-24T05:30:16;13.10;99.90
58951;DHT22;44730;53.158;6.398;2022-09-24T05:32:42;13.10;99.90
58951;DHT22;44730;53.158;6.398;2022-09-24T05:35:08;13.10;99.90
58951;DHT22;44730;53.158;6.398;2022-09-24T05:37:35;13.10;99.90
58951;DHT22;44730;53.158;6.398;2022-09-24T05:40:03;13.10;99.90
58951;DHT22;44730;53.158;6.398;2022-09-24T05:42:48;13.10;99.90
58951;DHT22;44730;53.158;6.398;2022-09-24T05:45:13;13.10;99.90
58951;DHT22;44730;53.158;6.398;2022-09-24T05:47:46;13.10;99.90
58951;DHT22;44730;53.158;6.398;2022-09-24T05:50:12;13.10;99.90
58951;DHT22;44730;53.158;6.398;2022-09-24T05:52:41;13.10;99.90
58951;DHT22;44730;53.158;6.398;2022-09-24T05:55:08;13.10;99.90
58951;DHT22;44730;53.158;6.398;2022-09-24T05:57:34;13.10;99.90
58951;DHT22;44730;53.158;6.398;2022-09-24T06:00:00;13.10;99.90
58951;DHT22;44730;53.158;6.398;2022-09-24T06:02:26;13.10;99.90
58951;DHT22;44730;53.158;6.398;2022-09-24T06:04:52;13.10;99.90
58951;DHT22;44730;53.158;6.398;2022-09-24T06:07:24;13.10;99.90
58951;DHT22;44730;53.158;6.398;2022-09-24T06:09:49;13.10;99.90
58951;DHT22;44730;53.158;6.398;2022-09-24T06:12:15;13.10;99.90
58951;DHT22;44730;53.158;6.398;2022-09-24T06:14:42;13.10;99.90
58951;DHT22;44730;53.158;6.398;2022-09-24T06:17:09;13.20;99.90
58951;DHT22;44730;53.158;6.398;2022-09-24T06:19:34;13.10;99.90
58951;DHT22;44730;53.158;6.398;2022-09-24T06:22:00;13.10;99.90
58951;DHT22;44730;53.158;6.398;2022-09-24T06:24:26;13.20;99.90
58951;DHT22;44730;53.158;6.398;2022-09-24T06:26:51;13.10;99.90
58951;DHT22;44730;53.158;6.398;2022-09-24T06:29:17;13.10;99.90
58951;DHT22;44730;53.158;6.398;2022-09-24T06:31:43;13.10;99.90
58951;DHT22;44730;53.158;6.398;2022-09-24T06:34:10;13.20;99.90
58951;DHT22;44730;53.158;6.398;2022-09-24T06:36:36;13.20;99.90
58951;DHT22;44730;53.158;6.398;2022-09-24T06:39:01;13.20;99.90
58951;DHT22;44730;53.158;6.398;2022-09-24T06:41:27;13.20;99.90
58951;DHT22;44730;53.158;6.398;2022-09-24T06:43:53;13.20;99.90
58951;DHT22;44730;53.158;6.398;2022-09-24T06:46:19;13.30;99.90
58951;DHT22;44730;53.158;6.398;2022-09-24T06:48:48;13.30;99.90
58951;DHT22;44730;53.158;6.398;2022-09-24T06:51:13;13.30;99.90
58951;DHT22;44730;53.158;6.398;2022-09-24T06:53:39;13.40;99.90
58951;DHT22;44730;53.158;6.398;2022-09-24T06:56:06;13.40;99.90
58951;DHT22;44730;53.158;6.398;2022-09-24T06:58:32;13.40;99.90
58951;DHT22;44730;53.158;6.398;2022-09-24T07:01:01;13.40;99.90
58951;DHT22;44730;53.158;6.398;2022-09-24T07:03:29;13.50;99.90
58951;DHT22;44730;53.158;6.398;2022-09-24T07:06:02;13.50;99.90
58951;DHT22;44730;53.158;6.398;2022-09-24T07:08:28;13.50;99.90
58951;DHT22;44730;53.158;6.398;2022-09-24T07:10:54;13.60;99.90
58951;DHT22;44730;53.158;6.398;2022-09-24T07:13:20;13.60;99.90
58951;DHT22;44730;53.158;6.398;2022-09-24T07:15:47;13.70;99.90
58951;DHT22;44730;53.158;6.398;2022-09-24T07:18:13;13.80;99.90
58951;DHT22;44730;53.158;6.398;2022-09-24T07:20:39;13.80;99.90
58951;DHT22;44730;53.158;6.398;2022-09-24T07:23:09;13.80;99.90
58951;DHT22;44730;53.158;6.398;2022-09-24T07:25:36;13.90;99.90
58951;DHT22;44730;53.158;6.398;2022-09-24T07:28:07;13.90;99.90
58951;DHT22;44730;53.158;6.398;2022-09-24T07:30:33;13.90;99.90
58951;DHT22;44730;53.158;6.398;2022-09-24T07:32:59;14.00;99.90
58951;DHT22;44730;53.158;6.398;2022-09-24T07:35:29;14.00;99.90
58951;DHT22;44730;53.158;6.398;2022-09-24T07:38:00;14.10;99.90
58951;DHT22;44730;53.158;6.398;2022-09-24T07:40:26;14.10;99.90
58951;DHT22;44730;53.158;6.398;2022-09-24T07:42:53;14.10;99.90
58951;DHT22;44730;53.158;6.398;2022-09-24T07:45:20;14.20;99.90
58951;DHT22;44730;53.158;6.398;2022-09-24T07:47:46;14.30;99.90
58951;DHT22;44730;53.158;6.398;2022-09-24T07:50:12;14.40;99.90
58951;DHT22;44730;53.158;6.398;2022-09-24T07:52:38;14.50;99.90
58951;DHT22;44730;53.158;6.398;2022-09-24T07:55:05;14.50;99.90
58951;DHT22;44730;53.158;6.398;2022-09-24T07:57:31;14.60;99.90
58951;DHT22;44730;53.158;6.398;2022-09-24T07:59:56;14.50;99.90
58951;DHT22;44730;53.158;6.398;2022-09-24T08:02:22;14.50;99.90
58951;DHT22;44730;53.158;6.398;2022-09-24T08:04:49;14.50;99.90
58951;DHT22;44730;53.158;6.398;2022-09-24T08:07:15;14.50;99.90
58951;DHT22;44730;53.158;6.398;2022-09-24T08:09:41;14.50;99.90
58951;DHT22;44730;53.158;6.398;2022-09-24T08:12:07;14.50;99.90
58951;DHT22;44730;53.158;6.398;2022-09-24T08:14:33;14.50;99.90
58951;DHT22;44730;53.158;6.398;2022-09-24T08:17:00;14.60;99.90
58951;DHT22;44730;53.158;6.398;2022-09-24T08:19:27;14.60;99.90
58951;DHT22;44730;53.158;6.398;2022-09-24T08:21:55;14.60;99.90
58951;DHT22;44730;53.158;6.398;2022-09-24T08:24:22;14.60;99.90
58951;DHT22;44730;53.158;6.398;2022-09-24T08:26:47;14.60;99.90
58951;DHT22;44730;53.158;6.398;2022-09-24T08:29:13;14.70;99.90
58951;DHT22;44730;53.158;6.398;2022-09-24T08:31:39;14.60;99.90
58951;DHT22;44730;53.158;6.398;2022-09-24T08:34:05;14.70;99.90
58951;DHT22;44730;53.158;6.398;2022-09-24T08:36:31;14.80;99.90
58951;DHT22;44730;53.158;6.398;2022-09-24T08:38:57;14.80;99.90
58951;DHT22;44730;53.158;6.398;2022-09-24T08:44:13;14.90;99.90
58951;DHT22;44730;53.158;6.398;2022-09-24T08:47:06;14.80;99.90
58951;DHT22;44730;53.158;6.398;2022-09-24T08:49:51;14.80;99.90
58951;DHT22;44730;53.158;6.398;2022-09-24T08:54:55;14.90;99.90
58951;DHT22;44730;53.158;6.398;2022-09-24T08:57:23;15.00;99.90
58951;DHT22;44730;53.158;6.398;2022-09-24T08:59:51;15.00;99.90
58951;DHT22;44730;53.158;6.398;2022-09-24T09:05:36;15.20;99.90
58951;DHT22;44730;53.158;6.398;2022-09-24T09:08:16;15.30;99.90
58951;DHT22;44730;53.158;6.398;2022-09-24T09:10:44;15.30;99.90
58951;DHT22;44730;53.158;6.398;2022-09-24T09:13:54;15.30;99.90
58951;DHT22;44730;53.158;6.398;2022-09-24T09:16:04;15.40;99.90
58951;DHT22;44730;53.158;6.398;2022-09-24T09:18:37;15.40;99.90
58951;DHT22;44730;53.158;6.398;2022-09-24T09:23:49;15.40;99.90
58951;DHT22;44730;53.158;6.398;2022-09-24T09:26:18;15.50;99.90
58951;DHT22;44730;53.158;6.398;2022-09-24T09:28:51;15.60;99.90
58951;DHT22;44730;53.158;6.398;2022-09-24T09:42:00;15.50;99.90
58951;DHT22;44730;53.158;6.398;2022-09-24T09:44:29;15.50;99.90
58951;DHT22;44730;53.158;6.398;2022-09-24T09:47:03;15.50;99.90
58951;DHT22;44730;53.158;6.398;2022-09-24T09:49:34;15.40;99.90
58951;DHT22;44730;53.158;6.398;2022-09-24T09:52:13;15.40;99.90
58951;DHT22;44730;53.158;6.398;2022-09-24T09:54:40;15.40;99.90
58951;DHT22;44730;53.158;6.398;2022-09-24T09:57:15;15.50;99.90
58951;DHT22;44730;53.158;6.398;2022-09-24T10:10:58;15.50;99.90
58951;DHT22;44730;53.158;6.398;2022-09-24T10:13:24;15.70;99.90
58951;DHT22;44730;53.158;6.398;2022-09-24T10:16:01;15.60;99.90
58951;DHT22;44730;53.158;6.398;2022-09-24T10:21:09;15.60;99.90
58951;DHT22;44730;53.158;6.398;2022-09-24T10:23:39;15.60;99.90
58951;DHT22;44730;53.158;6.398;2022-09-24T10:26:07;15.60;99.90
58951;DHT22;44730;53.158;6.398;2022-09-24T10:28:38;15.60;99.90
58951;DHT22;44730;53.158;6.398;2022-09-24T10:31:28;15.70;99.90
58951;DHT22;44730;53.158;6.398;2022-09-24T10:33:55;15.70;99.90
58951;DHT22;44730;53.158;6.398;2022-09-24T10:36:27;15.70;99.90
58951;DHT22;44730;53.158;6.398;2022-09-24T10:39:14;15.70;99.90
58951;DHT22;44730;53.158;6.398;2022-09-24T10:41:51;15.70;99.90
58951;DHT22;44730;53.158;6.398;2022-09-24T10:44:19;15.70;99.90
58951;DHT22;44730;53.158;6.398;2022-09-24T10:46:54;15.70;99.90
58951;DHT22;44730;53.158;6.398;2022-09-24T10:54:53;15.60;99.90
58951;DHT22;44730;53.158;6.398;2022-09-24T11:00:23;15.60;99.90
58951;DHT22;44730;53.158;6.398;2022-09-24T11:03:13;15.50;99.90
58951;DHT22;44730;53.158;6.398;2022-09-24T11:05:55;15.40;99.90
58951;DHT22;44730;53.158;6.398;2022-09-24T11:17:17;15.30;99.90
58951;DHT22;44730;53.158;6.398;2022-09-24T11:19:51;15.20;99.90
58951;DHT22;44730;53.158;6.398;2022-09-24T11:28:04;15.10;99.90
58951;DHT22;44730;53.158;6.398;2022-09-24T11:30:39;15.10;99.90
58951;DHT22;44730;53.158;6.398;2022-09-24T11:33:31;15.20;99.90
58951;DHT22;44730;53.158;6.398;2022-09-24T11:36:05;15.20;99.90
58951;DHT22;44730;53.158;6.398;2022-09-24T11:41:19;15.30;99.90
58951;DHT22;44730;53.158;6.398;2022-09-24T11:46:57;15.20;99.90
58951;DHT22;44730;53.158;6.398;2022-09-24T11:49:35;15.20;99.90
58951;DHT22;44730;53.158;6.398;2022-09-24T11:57:23;15.30;99.90
58951;DHT22;44730;53.158;6.398;2022-09-24T12:00:15;15.40;99.90
58951;DHT22;44730;53.158;6.398;2022-09-24T12:07:59;15.90;99.90
58951;DHT22;44730;53.158;6.398;2022-09-24T12:10:35;16.10;99.90
58951;DHT22;44730;53.158;6.398;2022-09-24T12:13:19;16.30;99.90
58951;DHT22;44730;53.158;6.398;2022-09-24T12:16:01;16.30;99.90
58951;DHT22;44730;53.158;6.398;2022-09-24T12:18:28;16.20;99.90
58951;DHT22;44730;53.158;6.398;2022-09-24T12:21:05;16.20;99.90
58951;DHT22;44730;53.158;6.398;2022-09-24T12:23:37;16.20;99.90
58951;DHT22;44730;53.158;6.398;2022-09-24T12:26:04;16.20;99.90
58951;DHT22;44730;53.158;6.398;2022-09-24T12:28:44;16.30;99.90
58951;DHT22;44730;53.158;6.398;2022-09-24T12:34:38;16.60;99.90
58951;DHT22;44730;53.158;6.398;2022-09-24T12:37:11;16.80;99.90
58951;DHT22;44730;53.158;6.398;2022-09-24T12:42:26;16.80;99.90
58951;DHT22;44730;53.158;6.398;2022-09-24T12:44:57;17.00;99.90
58951;DHT22;44730;53.158;6.398;2022-09-24T12:47:27;16.90;99.90
58951;DHT22;44730;53.158;6.398;2022-09-24T12:50:00;16.90;99.90
58951;DHT22;44730;53.158;6.398;2022-09-24T12:52:31;16.90;99.90
58951;DHT22;44730;53.158;6.398;2022-09-24T12:55:00;16.90;99.90
58951;DHT22;44730;53.158;6.398;2022-09-24T12:57:40;16.80;99.90
58951;DHT22;44730;53.158;6.398;2022-09-24T13:00:43;16.70;99.90
58951;DHT22;44730;53.158;6.398;2022-09-24T13:05:52;16.30;99.90
58951;DHT22;44730;53.158;6.398;2022-09-24T13:10:54;16.20;99.90
58951;DHT22;44730;53.158;6.398;2022-09-24T13:13:30;16.10;99.90
58951;DHT22;44730;53.158;6.398;2022-09-24T13:16:06;16.00;99.90
58951;DHT22;44730;53.158;6.398;2022-09-24T13:18:35;15.90;99.90
58951;DHT22;44730;53.158;6.398;2022-09-24T13:21:16;15.70;99.90
58951;DHT22;44730;53.158;6.398;2022-09-24T13:23:45;15.70;99.90
58951;DHT22;44730;53.158;6.398;2022-09-24T13:26:25;15.60;99.90
58951;DHT22;44730;53.158;6.398;2022-09-24T13:28:56;15.50;99.90
58951;DHT22;44730;53.158;6.398;2022-09-24T13:31:39;15.40;99.90
58951;DHT22;44730;53.158;6.398;2022-09-24T13:36:50;15.30;99.90
58951;DHT22;44730;53.158;6.398;2022-09-24T13:39:41;15.40;99.90
58951;DHT22;44730;53.158;6.398;2022-09-24T13:42:16;15.40;99.90
58951;DHT22;44730;53.158;6.398;2022-09-24T13:44:51;15.50;99.90
58951;DHT22;44730;53.158;6.398;2022-09-24T13:47:35;15.70;99.90
58951;DHT22;44730;53.158;6.398;2022-09-24T13:50:15;15.90;99.90
58951;DHT22;44730;53.158;6.398;2022-09-24T13:52:57;16.10;99.90
58951;DHT22;44730;53.158;6.398;2022-09-24T13:55:37;16.20;99.90
58951;DHT22;44730;53.158;6.398;2022-09-24T13:58:04;16.20;99.90
58951;DHT22;44730;53.158;6.398;2022-09-24T14:00:30;16.10;99.90
58951;DHT22;44730;53.158;6.398;2022-09-24T14:03:25;16.10;99.90
58951;DHT22;44730;53.158;6.398;2022-09-24T14:05:52;16.10;99.90
58951;DHT22;44730;53.158;6.398;2022-09-24T14:08:21;16.00;99.90
58951;DHT22;44730;53.158;6.398;2022-09-24T14:10:47;15.80;99.90
58951;DHT22;44730;53.158;6.398;2022-09-24T14:13:17;15.60;99.90
58951;DHT22;44730;53.158;6.398;2022-09-24T14:15:57;15.50;99.90
58951;DHT22;44730;53.158;6.398;2022-09-24T14:18:25;15.50;99.90
58951;DHT22;44730;53.158;6.398;2022-09-24T14:23:24;15.30;99.90
58951;DHT22;44730;53.158;6.398;2022-09-24T14:25:52;15.30;99.90
58951;DHT22;44730;53.158;6.398;2022-09-24T14:28:19;15.20;99.90
58951;DHT22;44730;53.158;6.398;2022-09-24T14:30:51;15.40;99.90
58951;DHT22;44730;53.158;6.398;2022-09-24T14:33:21;15.40;99.90
58951;DHT22;44730;53.158;6.398;2022-09-24T14:35:52;15.30;99.90
58951;DHT22;44730;53.158;6.398;2022-09-24T14:38:30;15.40;99.90
58951;DHT22;44730;53.158;6.398;2022-09-24T14:41:14;15.40;99.90
58951;DHT22;44730;53.158;6.398;2022-09-24T14:43:50;15.40;99.90
58951;DHT22;44730;53.158;6.398;2022-09-24T14:46:20;15.30;99.90
58951;DHT22;44730;53.158;6.398;2022-09-24T14:48:46;15.20;99.90
58951;DHT22;44730;53.158;6.398;2022-09-24T14:51:29;15.10;99.90
58951;DHT22;44730;53.158;6.398;2022-09-24T14:54:01;14.90;99.90
58951;DHT22;44730;53.158;6.398;2022-09-24T14:56:30;14.80;99.90
58951;DHT22;44730;53.158;6.398;2022-09-24T14:58:56;14.80;99.90
58951;DHT22;44730;53.158;6.398;2022-09-24T15:01:28;14.70;99.90
58951;DHT22;44730;53.158;6.398;2022-09-24T15:04:14;14.70;99.90
58951;DHT22;44730;53.158;6.398;2022-09-24T15:06:44;14.70;99.90
58951;DHT22;44730;53.158;6.398;2022-09-24T15:09:28;14.70;99.90
58951;DHT22;44730;53.158;6.398;2022-09-24T15:12:06;14.60;99.90
58951;DHT22;44730;53.158;6.398;2022-09-24T15:14:33;14.60;99.90
58951;DHT22;44730;53.158;6.398;2022-09-24T15:17:17;14.60;99.90
58951;DHT22;44730;53.158;6.398;2022-09-24T15:19:43;14.60;99.90
58951;DHT22;44730;53.158;6.398;2022-09-24T15:22:10;14.60;99.90
58951;DHT22;44730;53.158;6.398;2022-09-24T15:24:36;14.60;99.90
58951;DHT22;44730;53.158;6.398;2022-09-24T15:27:18;14.60;99.90
58951;DHT22;44730;53.158;6.398;2022-09-24T15:29:49;14.60;99.90
58951;DHT22;44730;53.158;6.398;2022-09-24T15:32:17;14.60;99.90
58951;DHT22;44730;53.158;6.398;2022-09-24T15:34:44;14.60;99.90
58951;DHT22;44730;53.158;6.398;2022-09-24T15:37:13;14.60;99.90
58951;DHT22;44730;53.158;6.398;2022-09-24T15:39:40;14.60;99.90
58951;DHT22;44730;53.158;6.398;2022-09-24T15:42:23;14.60;99.90
58951;DHT22;44730;53.158;6.398;2022-09-24T15:44:49;14.60;99.90
58951;DHT22;44730;53.158;6.398;2022-09-24T15:47:16;14.70;99.90
58951;DHT22;44730;53.158;6.398;2022-09-24T15:49:42;14.70;99.90
58951;DHT22;44730;53.158;6.398;2022-09-24T15:54:53;14.80;99.90
58951;DHT22;44730;53.158;6.398;2022-09-24T15:57:21;14.80;99.90
58951;DHT22;44730;53.158;6.398;2022-09-24T15:59:47;14.80;99.90
58951;DHT22;44730;53.158;6.398;2022-09-24T16:02:24;14.90;99.90
58951;DHT22;44730;53.158;6.398;2022-09-24T16:04:51;14.90;99.90
58951;DHT22;44730;53.158;6.398;2022-09-24T16:07:17;15.00;99.90
58951;DHT22;44730;53.158;6.398;2022-09-24T16:09:43;14.90;99.90
58951;DHT22;44730;53.158;6.398;2022-09-24T16:12:17;15.00;99.90
58951;DHT22;44730;53.158;6.398;2022-09-24T16:14:43;15.00;99.90
58951;DHT22;44730;53.158;6.398;2022-09-24T16:17:09;15.00;99.90
58951;DHT22;44730;53.158;6.398;2022-09-24T16:19:35;15.00;99.90
58951;DHT22;44730;53.158;6.398;2022-09-24T16:22:01;15.00;99.90
58951;DHT22;44730;53.158;6.398;2022-09-24T16:24:31;14.90;99.90
58951;DHT22;44730;53.158;6.398;2022-09-24T16:26:56;14.90;99.90
58951;DHT22;44730;53.158;6.398;2022-09-24T16:29:23;14.90;99.90
58951;DHT22;44730;53.158;6.398;2022-09-24T16:31:49;14.80;99.90
58951;DHT22;44730;53.158;6.398;2022-09-24T16:34:15;14.70;99.90
58951;DHT22;44730;53.158;6.398;2022-09-24T16:36:41;14.70;99.90
58951;DHT22;44730;53.158;6.398;2022-09-24T16:39:06;14.60;99.90
58951;DHT22;44730;53.158;6.398;2022-09-24T16:41:32;14.60;99.90
58951;DHT22;44730;53.158;6.398;2022-09-24T16:43:59;14.50;99.90
58951;DHT22;44730;53.158;6.398;2022-09-24T16:46:26;14.40;99.90
58951;DHT22;44730;53.158;6.398;2022-09-24T16:48:52;14.30;99.90
58951;DHT22;44730;53.158;6.398;2022-09-24T16:51:18;14.30;99.90
58951;DHT22;44730;53.158;6.398;2022-09-24T16:53:44;14.20;99.90
58951;DHT22;44730;53.158;6.398;2022-09-24T16:56:15;14.10;99.90
58951;DHT22;44730;53.158;6.398;2022-09-24T16:58:42;14.00;99.90
58951;DHT22;44730;53.158;6.398;2022-09-24T17:01:11;13.90;99.90
58951;DHT22;44730;53.158;6.398;2022-09-24T17:03:37;13.80;99.90
58951;DHT22;44730;53.158;6.398;2022-09-24T17:06:04;13.80;99.90
58951;DHT22;44730;53.158;6.398;2022-09-24T17:08:31;13.70;99.90
58951;DHT22;44730;53.158;6.398;2022-09-24T17:11:16;13.60;99.90
58951;DHT22;44730;53.158;6.398;2022-09-24T17:13:42;13.60;99.90
58951;DHT22;44730;53.158;6.398;2022-09-24T17:16:08;13.50;99.90
58951;DHT22;44730;53.158;6.398;2022-09-24T17:18:34;13.40;99.90
58951;DHT22;44730;53.158;6.398;2022-09-24T17:21:05;13.40;99.90
58951;DHT22;44730;53.158;6.398;2022-09-24T17:23:31;13.20;99.90
58951;DHT22;44730;53.158;6.398;2022-09-24T17:26:04;13.20;99.90
58951;DHT22;44730;53.158;6.398;2022-09-24T17:28:32;13.10;99.90
58951;DHT22;44730;53.158;6.398;2022-09-24T17:30:58;12.90;99.90
58951;DHT22;44730;53.158;6.398;2022-09-24T17:33:24;12.90;99.90
58951;DHT22;44730;53.158;6.398;2022-09-24T17:35:53;12.80;99.90
58951;DHT22;44730;53.158;6.398;2022-09-24T17:38:20;12.70;99.90